Time;durP1;ratioP1;P1;durP2;ratioP2;P2;SDS_P1;SDS_P2;PMS_P1;PMS_P2;Temp;Humidity;BMP_temperature;BMP_pressure;BME280_temperature;BME280_humidity;BME280_pressure;Samples;Min_cycle;Max_cycle;Signal;HPM_P1;HPM_P2
2022/06/10 00:01:11;;;;;;;20.42;5.80;;;;;;;;;;5068123;28;20097;-69
2022/06/10 00:03:37;;;;;;;16.60;6.20;;;;;;;;;;5062901;28;20790;-68
2022/06/10 00:06:05;;;;;;;19.98;5.70;;;;;;;;;;5056122;28;20504;-68
2022/06/10 00:08:33;;;;;;;20.85;6.65;;;;;;;;;;5062193;28;20404;-68
2022/06/10 00:11:00;;;;;;;9.73;4.40;;;;;;;;;;5050969;28;20536;-68
2022/06/10 00:13:27;;;;;;;14.90;5.15;;;;;;;;;;5069576;28;20041;-69
2022/06/10 00:15:54;;;;;;;10.13;4.28;;;;;;;;;;5068245;28;20049;-69
2022/06/10 00:18:21;;;;;;;11.43;4.70;;;;;;;;;;5068809;28;20519;-69
2022/06/10 00:20:47;;;;;;;11.23;5.30;;;;;;;;;;5067856;28;20041;-69
2022/06/10 00:23:13;;;;;;;14.32;5.75;;;;;;;;;;5051430;28;20049;-68
2022/06/10 00:25:40;;;;;;;13.23;4.95;;;;;;;;;;5051837;28;20053;-69
2022/06/10 00:28:07;;;;;;;19.70;6.03;;;;;;;;;;5049960;28;20077;-70
2022/06/10 00:30:33;;;;;;;14.77;6.15;;;;;;;;;;5048893;28;20500;-70
2022/06/10 00:32:59;;;;;;;23.65;6.88;;;;;;;;;;5048326;28;20529;-70
2022/06/10 00:35:26;;;;;;;11.13;5.60;;;;;;;;;;5050101;28;20051;-70
2022/06/10 00:37:52;;;;;;;14.43;4.93;;;;;;;;;;5050140;28;20045;-70
2022/06/10 00:40:20;;;;;;;13.30;5.25;;;;;;;;;;5050400;28;20098;-69
2022/06/10 00:42:46;;;;;;;9.18;4.40;;;;;;;;;;5049910;28;20318;-69
2022/06/10 00:45:31;;;;;;;12.70;5.55;;;;;;;;;;5049983;28;20045;-70
2022/06/10 00:47:57;;;;;;;20.55;5.97;;;;;;;;;;5048105;28;20049;-69
2022/06/10 00:50:29;;;;;;;14.45;5.47;;;;;;;;;;5048541;28;20401;-70
2022/06/10 00:52:58;;;;;;;13.50;5.47;;;;;;;;;;5049888;28;20478;-70
2022/06/10 00:55:28;;;;;;;12.30;4.90;;;;;;;;;;5048403;28;20063;-69
2022/06/10 00:57:58;;;;;;;12.60;5.38;;;;;;;;;;5048916;28;20382;-69
2022/06/10 01:00:24;;;;;;;12.90;5.20;;;;;;;;;;5048584;28;20053;-70
2022/06/10 01:02:50;;;;;;;15.40;5.22;;;;;;;;;;5048440;28;20076;-70
2022/06/10 01:05:18;;;;;;;15.23;5.43;;;;;;;;;;5048419;28;20520;-70
2022/06/10 01:07:45;;;;;;;13.82;5.35;;;;;;;;;;5048377;28;20049;-70
2022/06/10 01:10:13;;;;;;;23.88;5.05;;;;;;;;;;5050395;28;20049;-69
2022/06/10 01:12:45;;;;;;;21.83;6.97;;;;;;;;;;5048396;28;20037;-69
2022/06/10 01:15:17;;;;;;;16.98;5.35;;;;;;;;;;5049748;28;20107;-69
2022/06/10 01:17:54;;;;;;;11.65;4.32;;;;;;;;;;5064713;28;20049;-69
2022/06/10 01:20:20;;;;;;;17.55;5.10;;;;;;;;;;5053088;28;20045;-69
2022/06/10 01:22:55;;;;;;;17.75;4.65;;;;;;;;;;5051799;28;20417;-70
2022/06/10 01:25:27;;;;;;;12.80;4.35;;;;;;;;;;5053348;28;20063;-70
2022/06/10 01:28:12;;;;;;;10.07;4.18;;;;;;;;;;5053102;28;20488;-69
2022/06/10 01:30:38;;;;;;;13.85;4.82;;;;;;;;;;5051111;28;20072;-70
2022/06/10 01:33:10;;;;;;;11.43;4.05;;;;;;;;;;5051799;28;20068;-70
2022/06/10 01:35:44;;;;;;;16.27;4.80;;;;;;;;;;5051765;28;20060;-70
2022/06/10 01:38:13;;;;;;;7.65;3.80;;;;;;;;;;5072010;28;20049;-69
2022/06/10 01:41:14;;;;;;;8.32;5.03;;;;;;;;;;5070600;28;20088;-70
2022/06/10 01:43:44;;;;;;;9.25;4.03;;;;;;;;;;5059632;28;20059;-69
2022/06/10 01:46:14;;;;;;;14.18;4.63;;;;;;;;;;5071967;28;20131;-69
2022/06/10 01:48:59;;;;;;;10.50;4.30;;;;;;;;;;5070665;28;20049;-71
2022/06/10 01:51:31;;;;;;;14.55;4.68;;;;;;;;;;5071795;28;20048;-70
2022/06/10 01:54:00;;;;;;;11.13;4.20;;;;;;;;;;5070789;28;20501;-69
2022/06/10 01:56:34;;;;;;;13.05;4.63;;;;;;;;;;5071662;28;20094;-70
2022/06/10 01:59:10;;;;;;;6.68;3.63;;;;;;;;;;5069981;28;20048;-69
2022/06/10 02:01:38;;;;;;;10.00;4.25;;;;;;;;;;5071778;28;20401;-70
2022/06/10 02:04:13;;;;;;;8.85;4.13;;;;;;;;;;5070629;28;20044;-69
2022/06/10 02:06:44;;;;;;;10.88;3.90;;;;;;;;;;5070429;28;20044;-70
2022/06/10 02:09:14;;;;;;;8.75;3.72;;;;;;;;;;5070178;28;20045;-70
2022/06/10 02:11:42;;;;;;;10.05;4.18;;;;;;;;;;5070013;28;20052;-70
2022/06/10 02:14:16;;;;;;;10.77;3.67;;;;;;;;;;5071083;28;20051;-70
2022/06/10 02:16:44;;;;;;;11.20;3.85;;;;;;;;;;5071500;28;20040;-70
2022/06/10 02:19:23;;;;;;;11.00;4.17;;;;;;;;;;5053572;28;20068;-69
2022/06/10 02:22:01;;;;;;;7.75;3.50;;;;;;;;;;5071315;28;20512;-69
2022/06/10 02:24:27;;;;;;;11.77;5.18;;;;;;;;;;5060987;28;20068;-69
2022/06/10 02:26:55;;;;;;;9.95;3.83;;;;;;;;;;5051944;28;20037;-69
2022/06/10 02:29:31;;;;;;;8.43;4.03;;;;;;;;;;5050188;28;20049;-69
2022/06/10 02:31:59;;;;;;;11.38;3.83;;;;;;;;;;5050668;28;20110;-69
2022/06/10 02:34:26;;;;;;;13.05;4.20;;;;;;;;;;5051023;28;20080;-70
2022/06/10 02:37:08;;;;;;;8.15;3.75;;;;;;;;;;5050673;28;20051;-69
2022/06/10 02:39:51;;;;;;;12.38;4.50;;;;;;;;;;5064627;28;20055;-69
2022/06/10 02:42:25;;;;;;;11.15;4.10;;;;;;;;;;5070860;28;20397;-70
2022/06/10 02:45:06;;;;;;;11.07;4.28;;;;;;;;;;5069715;28;20052;-69
2022/06/10 02:47:40;;;;;;;10.07;3.92;;;;;;;;;;5071140;28;20084;-69
2022/06/10 02:50:07;;;;;;;9.50;3.78;;;;;;;;;;5071028;28;20048;-69
2022/06/10 02:52:34;;;;;;;9.27;4.20;;;;;;;;;;5070801;28;20048;-69
2022/06/10 02:55:01;;;;;;;13.18;4.10;;;;;;;;;;5070782;28;20087;-69
2022/06/10 03:01:11;;;;;;;36.97;8.82;;;;;;;;;;5068994;28;20477;-69
2022/06/10 03:03:05;;;;;;;13.02;4.20;;;;;;;;;;5070503;28;20056;-69
2022/06/10 03:05:40;;;;;;;23.58;5.95;;;;;;;;;;5070492;28;20051;-69
2022/06/10 03:08:06;;;;;;;15.52;4.88;;;;;;;;;;5069504;28;20507;-70
2022/06/10 03:10:32;;;;;;;15.20;5.30;;;;;;;;;;5068910;28;20049;-69
2022/06/10 03:13:17;;;;;;;21.83;6.10;;;;;;;;;;5068844;28;20033;-69
2022/06/10 03:16:04;;;;;;;26.23;7.63;;;;;;;;;;5070281;28;20416;-68
2022/06/10 03:18:44;;;;;;;30.05;8.35;;;;;;;;;;5069414;28;20049;-68
2022/06/10 03:21:26;;;;;;;18.00;5.43;;;;;;;;;;5069264;28;20045;-68
2022/06/10 03:23:55;;;;;;;18.35;6.32;;;;;;;;;;5067348;28;20501;-69
2022/06/10 03:26:21;;;;;;;;;;;;;;;;;;5049655;28;20057;-69
2022/06/10 03:28:57;;;;;;;13.60;5.13;;;;;;;;;;5049469;28;19931;-69
2022/06/10 03:31:28;;;;;;;10.82;4.47;;;;;;;;;;5049882;28;20049;-69
2022/06/10 03:33:59;;;;;;;12.60;5.00;;;;;;;;;;5050737;28;20051;-70
2022/06/10 03:36:27;;;;;;;17.38;5.82;;;;;;;;;;5033554;28;20136;-70
2022/06/10 03:38:54;;;;;;;13.52;5.57;;;;;;;;;;5050119;28;20079;-70
2022/06/10 03:41:20;;;;;;;18.38;6.65;;;;;;;;;;5048703;28;20052;-70
2022/06/10 03:43:46;;;;;;;47.25;12.13;;;;;;;;;;5050653;28;20045;-70
2022/06/10 03:46:13;;;;;;;14.90;6.18;;;;;;;;;;5049363;28;20033;-70
2022/06/10 03:48:40;;;;;;;60.97;15.15;;;;;;;;;;5049143;28;20084;-70
2022/06/10 03:51:08;;;;;;;24.23;7.80;;;;;;;;;;5052199;28;20127;-70
2022/06/10 03:53:34;;;;;;;32.67;8.68;;;;;;;;;;5069725;28;20044;-70
2022/06/10 03:56:00;;;;;;;52.97;11.98;;;;;;;;;;5069094;28;20489;-69
2022/06/10 03:58:26;;;;;;;41.83;11.35;;;;;;;;;;5069624;28;20050;-70
2022/06/10 04:00:52;;;;;;;23.98;8.57;;;;;;;;;;5068982;28;20131;-70
2022/06/10 04:03:18;;;;;;;45.13;12.50;;;;;;;;;;5068157;28;20051;-70
2022/06/10 04:05:44;;;;;;;29.77;8.00;;;;;;;;;;5069984;28;20044;-70
2022/06/10 04:08:10;;;;;;;18.88;6.85;;;;;;;;;;5068169;28;20054;-70
2022/06/10 04:10:36;;;;;;;27.65;8.60;;;;;;;;;;5067594;28;20080;-70
2022/06/10 04:13:02;;;;;;;26.10;7.60;;;;;;;;;;5069405;28;20037;-69
2022/06/10 04:15:28;;;;;;;26.80;9.52;;;;;;;;;;5068584;28;20033;-69
2022/06/10 04:17:57;;;;;;;13.18;5.95;;;;;;;;;;5049088;28;20473;-70
2022/06/10 04:20:28;;;;;;;19.75;8.05;;;;;;;;;;5063296;28;20117;-69
2022/06/10 04:22:54;;;;;;;27.55;8.75;;;;;;;;;;5067850;28;20055;-70
2022/06/10 04:25:20;;;;;;;37.05;11.88;;;;;;;;;;5067575;28;20048;-70
2022/06/10 04:27:47;;;;;;;17.05;6.25;;;;;;;;;;5068256;28;20110;-69
2022/06/10 04:30:21;;;;;;;16.88;5.55;;;;;;;;;;5069569;28;20045;-69
2022/06/10 04:32:47;;;;;;;24.10;8.02;;;;;;;;;;5050164;28;20116;-69
2022/06/10 04:35:13;;;;;;;16.90;6.40;;;;;;;;;;5050532;28;20470;-69
2022/06/10 04:37:39;;;;;;;10.20;5.35;;;;;;;;;;5049095;28;20401;-69
2022/06/10 04:40:05;;;;;;;17.75;7.43;;;;;;;;;;5048258;28;20044;-69
2022/06/10 04:42:32;;;;;;;20.17;6.93;;;;;;;;;;5048746;28;20056;-69
2022/06/10 04:44:58;;;;;;;18.88;6.78;;;;;;;;;;5049700;28;20497;-69
2022/06/10 04:47:24;;;;;;;14.32;5.50;;;;;;;;;;5048588;28;20171;-69
2022/06/10 04:49:50;;;;;;;12.70;5.90;;;;;;;;;;5048692;28;20110;-70
2022/06/10 04:52:16;;;;;;;14.20;6.18;;;;;;;;;;5052193;28;20044;-70
2022/06/10 04:54:42;;;;;;;36.22;11.40;;;;;;;;;;5051827;28;20127;-69
2022/06/10 04:57:08;;;;;;;87.68;24.88;;;;;;;;;;5052598;28;20394;-70
2022/06/10 04:59:34;;;;;;;53.33;14.38;;;;;;;;;;5052284;28;20076;-69
2022/06/10 05:02:00;;;;;;;13.60;6.75;;;;;;;;;;5053715;28;20064;-70
2022/06/10 05:04:26;;;;;;;41.08;13.40;;;;;;;;;;5053470;28;20400;-70
2022/06/10 05:06:52;;;;;;;16.77;6.57;;;;;;;;;;5053518;28;20393;-70
2022/06/10 05:09:19;;;;;;;73.38;21.77;;;;;;;;;;5052860;28;20041;-73
2022/06/10 05:11:45;;;;;;;37.35;13.57;;;;;;;;;;5053361;28;20103;-70
2022/06/10 05:14:12;;;;;;;14.23;6.22;;;;;;;;;;5053661;28;20045;-70
2022/06/10 05:16:38;;;;;;;30.70;9.70;;;;;;;;;;5053437;28;20047;-70
2022/06/10 05:19:04;;;;;;;41.40;13.55;;;;;;;;;;5053414;28;20044;-70
2022/06/10 05:21:30;;;;;;;37.35;10.02;;;;;;;;;;5052037;28;20075;-70
2022/06/10 05:23:56;;;;;;;16.27;6.68;;;;;;;;;;5051244;28;20060;-70
2022/06/10 05:26:22;;;;;;;15.02;6.00;;;;;;;;;;5053455;28;20052;-69
2022/06/10 05:28:50;;;;;;;20.40;7.32;;;;;;;;;;5051734;28;20101;-70
2022/06/10 05:31:16;;;;;;;10.67;6.07;;;;;;;;;;5052121;28;20071;-70
2022/06/10 05:36:26;;;;;;;15.00;5.75;;;;;;;;;;5052764;28;20123;-69
2022/06/10 05:38:52;;;;;;;15.38;6.72;;;;;;;;;;5053070;28;20466;-70
2022/06/10 05:44:03;;;;;;;18.27;7.40;;;;;;;;;;5064928;28;20048;-70
2022/06/10 05:46:29;;;;;;;16.92;5.60;;;;;;;;;;5071974;28;20055;-70
2022/06/10 05:48:55;;;;;;;20.98;8.32;;;;;;;;;;5071124;28;20048;-70
2022/06/10 05:51:21;;;;;;;32.67;9.75;;;;;;;;;;5070308;28;20117;-70
2022/06/10 05:53:47;;;;;;;11.27;5.40;;;;;;;;;;5084679;28;20114;-70
2022/06/10 05:56:13;;;;;;;49.65;14.65;;;;;;;;;;5051178;28;20564;-70
2022/06/10 05:58:39;;;;;;;21.00;7.80;;;;;;;;;;5052076;28;20045;-70
2022/06/10 06:01:05;;;;;;;27.45;8.63;;;;;;;;;;5051758;28;20044;-70
2022/06/10 06:03:31;;;;;;;28.52;8.20;;;;;;;;;;5052213;28;20041;-70
2022/06/10 06:05:57;;;;;;;22.30;7.38;;;;;;;;;;5051911;28;20118;-70
2022/06/10 06:08:23;;;;;;;19.45;7.35;;;;;;;;;;5050828;28;20047;-70
2022/06/10 06:10:49;;;;;;;9.82;5.13;;;;;;;;;;5052398;28;20402;-70
2022/06/10 06:13:15;;;;;;;16.45;5.43;;;;;;;;;;5064479;28;20045;-69
2022/06/10 06:15:41;;;;;;;13.20;6.20;;;;;;;;;;5065781;28;20052;-69
2022/06/10 06:18:07;;;;;;;12.20;5.78;;;;;;;;;;5066991;28;20040;-70
2022/06/10 06:20:33;;;;;;;39.88;9.60;;;;;;;;;;5057365;28;20124;-70
2022/06/10 06:22:59;;;;;;;13.63;5.57;;;;;;;;;;5051903;28;20049;-70
2022/06/10 06:25:25;;;;;;;13.43;5.38;;;;;;;;;;5050739;28;20132;-70
2022/06/10 06:27:52;;;;;;;11.73;5.25;;;;;;;;;;5050587;28;20045;-70
2022/06/10 06:30:30;;;;;;;14.70;5.20;;;;;;;;;;5059559;28;20404;-70
2022/06/10 06:32:56;;;;;;;13.35;6.05;;;;;;;;;;5063193;28;20049;-69
2022/06/10 06:35:22;;;;;;;12.57;4.97;;;;;;;;;;5051577;28;20049;-70
2022/06/10 06:37:48;;;;;;;16.10;5.95;;;;;;;;;;5050697;28;20420;-70
2022/06/10 06:40:15;;;;;;;12.35;4.90;;;;;;;;;;5058818;28;20546;-69
2022/06/10 06:42:41;;;;;;;11.63;5.32;;;;;;;;;;5055830;28;20060;-70
2022/06/10 06:45:07;;;;;;;14.00;5.20;;;;;;;;;;5059082;28;20478;-70
2022/06/10 06:47:33;;;;;;;14.05;5.03;;;;;;;;;;5052994;28;20477;-70
2022/06/10 06:49:59;;;;;;;14.95;5.57;;;;;;;;;;5051190;28;20052;-70
2022/06/10 06:52:25;;;;;;;13.45;5.40;;;;;;;;;;5049716;28;20048;-69
2022/06/10 06:54:51;;;;;;;14.65;4.97;;;;;;;;;;5062794;28;20048;-70
2022/06/10 06:57:18;;;;;;;13.45;4.72;;;;;;;;;;5064570;28;20039;-70
2022/06/10 06:59:44;;;;;;;17.95;6.55;;;;;;;;;;5061924;28;20056;-70
2022/06/10 07:02:10;;;;;;;11.77;5.63;;;;;;;;;;5054369;28;20048;-69
2022/06/10 07:04:36;;;;;;;14.23;4.93;;;;;;;;;;5049529;28;20052;-70
2022/06/10 07:07:03;;;;;;;22.25;7.22;;;;;;;;;;5049944;28;20041;-70
2022/06/10 07:09:29;;;;;;;13.07;4.88;;;;;;;;;;5054332;28;20107;-70
2022/06/10 07:11:55;;;;;;;7.57;4.88;;;;;;;;;;5050554;28;20037;-71
2022/06/10 07:14:22;;;;;;;10.32;5.20;;;;;;;;;;5054161;28;20368;-69
2022/06/10 07:16:51;;;;;;;18.67;7.00;;;;;;;;;;5055122;28;20073;-70
2022/06/10 07:19:17;;;;;;;14.18;6.82;;;;;;;;;;5050694;28;20128;-70
2022/06/10 07:21:43;;;;;;;14.02;6.43;;;;;;;;;;5049857;28;20045;-68
2022/06/10 07:24:09;;;;;;;16.00;6.18;;;;;;;;;;5060593;28;20055;-68
2022/06/10 07:26:35;;;;;;;11.00;6.10;;;;;;;;;;5060759;28;20062;-69
2022/06/10 07:29:01;;;;;;;13.23;5.95;;;;;;;;;;5058240;28;20127;-69
2022/06/10 07:31:27;;;;;;;15.93;7.10;;;;;;;;;;5048404;28;20044;-69
2022/06/10 07:33:53;;;;;;;11.82;6.20;;;;;;;;;;5062415;28;20040;-69
2022/06/10 07:36:19;;;;;;;24.10;8.77;;;;;;;;;;5050629;28;20405;-70
2022/06/10 07:38:45;;;;;;;30.75;9.68;;;;;;;;;;5050812;28;20405;-69
2022/06/10 07:43:56;;;;;;;13.55;7.45;;;;;;;;;;5065078;28;20067;-68
2022/06/10 07:46:23;;;;;;;10.95;6.75;;;;;;;;;;5069813;28;20477;-69
2022/06/10 07:48:49;;;;;;;25.23;9.25;;;;;;;;;;5067852;28;20048;-69
2022/06/10 07:51:17;;;;;;;11.93;7.35;;;;;;;;;;5069785;28;20043;-69
2022/06/10 07:53:43;;;;;;;13.48;7.22;;;;;;;;;;5069706;28;20106;-69
2022/06/10 07:56:10;;;;;;;18.17;7.05;;;;;;;;;;5068442;28;20150;-69
2022/06/10 07:58:36;;;;;;;18.15;7.22;;;;;;;;;;5065595;28;20053;-69
2022/06/10 08:01:02;;;;;;;22.60;8.18;;;;;;;;;;5060456;28;20119;-69
2022/06/10 08:03:28;;;;;;;16.70;7.05;;;;;;;;;;5067851;28;20481;-69
2022/06/10 08:05:54;;;;;;;14.88;6.18;;;;;;;;;;5069610;28;20044;-69
2022/06/10 08:08:21;;;;;;;14.98;6.22;;;;;;;;;;5068581;28;20370;-70
2022/06/10 08:10:47;;;;;;;15.05;5.85;;;;;;;;;;5069459;28;20044;-69
2022/06/10 08:13:13;;;;;;;15.07;5.53;;;;;;;;;;5068032;28;20654;-70
2022/06/10 08:15:40;;;;;;;12.77;6.20;;;;;;;;;;5068129;28;20499;-69
2022/06/10 08:18:06;;;;;;;27.33;7.60;;;;;;;;;;5050897;28;20477;-69
2022/06/10 08:23:21;;;;;;;12.57;5.93;;;;;;;;;;5067803;28;20057;-70
2022/06/10 08:25:47;;;;;;;18.45;6.90;;;;;;;;;;5071122;28;20051;-69
2022/06/10 08:28:13;;;;;;;11.43;4.97;;;;;;;;;;5055439;28;20048;-70
2022/06/10 08:30:40;;;;;;;10.38;5.15;;;;;;;;;;5069049;28;20040;-69
2022/06/10 08:33:06;;;;;;;26.70;8.45;;;;;;;;;;5070798;28;20162;-69
2022/06/10 08:35:32;;;;;;;13.55;5.38;;;;;;;;;;5042548;28;20132;-70
2022/06/10 08:37:59;;;;;;;26.48;7.78;;;;;;;;;;5056574;28;20066;-69
2022/06/10 08:40:30;;;;;;;13.77;5.43;;;;;;;;;;5069168;28;20090;-69
2022/06/10 08:43:00;;;;;;;10.93;4.57;;;;;;;;;;5064764;28;21103;-70
2022/06/10 08:45:41;;;;;;;9.70;4.90;;;;;;;;;;5057567;28;20049;-69
2022/06/10 08:48:27;;;;;;;12.70;5.22;;;;;;;;;;5057615;28;20088;-70
2022/06/10 08:51:31;;;;;;;9.32;4.65;;;;;;;;;;5052324;28;20098;-70
2022/06/10 08:54:11;;;;;;;11.73;4.65;;;;;;;;;;5047981;28;20043;-69
2022/06/10 08:56:42;;;;;;;11.23;4.63;;;;;;;;;;5067600;28;20439;-69
2022/06/10 08:59:11;;;;;;;11.70;4.63;;;;;;;;;;5067555;28;20053;-69
2022/06/10 09:01:45;;;;;;;15.48;4.63;;;;;;;;;;5050253;28;20045;-69
2022/06/10 09:04:20;;;;;;;10.90;4.38;;;;;;;;;;5067353;28;20049;-69
2022/06/10 09:06:52;;;;;;;13.38;4.85;;;;;;;;;;5067861;28;20053;-69
2022/06/10 09:09:20;;;;;;;10.40;4.35;;;;;;;;;;5051228;28;20685;-69
2022/06/10 09:11:57;;;;;;;9.90;5.33;;;;;;;;;;5067196;28;20053;-69
2022/06/10 09:14:25;;;;;;;12.07;5.03;;;;;;;;;;5050112;28;20158;-69
2022/06/10 09:17:02;;;;;;;17.07;5.67;;;;;;;;;;5050492;28;20131;-69
2022/06/10 09:19:36;;;;;;;15.50;5.85;;;;;;;;;;5033686;28;20057;-69
2022/06/10 09:22:16;;;;;;;10.70;5.05;;;;;;;;;;5033767;28;20052;-69
2022/06/10 09:25:01;;;;;;;11.18;5.15;;;;;;;;;;5040960;28;20465;-69
2022/06/10 09:27:29;;;;;;;12.07;4.88;;;;;;;;;;5064827;28;20102;-69
2022/06/10 09:29:57;;;;;;;16.70;5.57;;;;;;;;;;5051174;28;20480;-69
2022/06/10 09:32:23;;;;;;;21.52;7.05;;;;;;;;;;5064692;28;20856;-69
2022/06/10 09:35:07;;;;;;;13.85;5.75;;;;;;;;;;5070952;28;20118;-69
2022/06/10 09:37:33;;;;;;;19.77;7.03;;;;;;;;;;5071519;28;20047;-69
2022/06/10 09:43:09;;;;;;;13.43;4.85;;;;;;;;;;5056937;28;20048;-70
2022/06/10 09:45:35;;;;;;;11.85;4.72;;;;;;;;;;5056237;28;20045;-69
2022/06/10 09:48:12;;;;;;;12.40;4.63;;;;;;;;;;5057486;28;20102;-69
2022/06/10 09:50:45;;;;;;;8.35;4.53;;;;;;;;;;5069869;28;20049;-69
2022/06/10 09:53:12;;;;;;;10.40;4.88;;;;;;;;;;5070332;28;20051;-82
2022/06/10 09:55:46;;;;;;;13.65;5.43;;;;;;;;;;5045651;28;20370;-86
2022/06/10 09:58:30;;;;;;;16.58;5.40;;;;;;;;;;5070062;28;20463;-91
2022/06/10 10:00:56;;;;;;;11.07;4.07;;;;;;;;;;5059006;28;20360;-91
2022/06/10 10:03:31;;;;;;;10.15;3.80;;;;;;;;;;5058332;28;20527;-89
2022/06/10 10:06:09;;;;;;;14.98;4.80;;;;;;;;;;5034570;28;20045;-89
2022/06/10 10:08:35;;;;;;;8.13;3.60;;;;;;;;;;5057311;28;20049;-88
2022/06/10 10:11:01;;;;;;;13.02;4.15;;;;;;;;;;5040124;28;20052;-89
2022/06/10 10:13:39;;;;;;;26.45;6.88;;;;;;;;;;5051208;28;20396;-88
2022/06/10 10:16:05;;;;;;;11.85;4.32;;;;;;;;;;5072416;28;20156;-84
2022/06/10 10:18:37;;;;;;;11.95;4.28;;;;;;;;;;5049097;28;20509;-89
2022/06/10 10:21:08;;;;;;;8.90;3.80;;;;;;;;;;5044505;28;20107;-88
2022/06/10 10:23:36;;;;;;;33.50;10.00;;;;;;;;;;5047102;28;20390;-89
2022/06/10 10:26:06;;;;;;;24.75;7.22;;;;;;;;;;5069334;28;20052;-87
2022/06/10 10:28:35;;;;;;;11.20;3.90;;;;;;;;;;5054704;28;20041;-87
2022/06/10 10:31:04;;;;;;;13.43;4.35;;;;;;;;;;5050557;28;20056;-86
2022/06/10 10:33:30;;;;;;;12.00;4.07;;;;;;;;;;5057532;28;20458;-86
2022/06/10 10:35:58;;;;;;;11.18;4.10;;;;;;;;;;5037885;28;20049;-86
2022/06/10 10:38:29;;;;;;;15.95;5.30;;;;;;;;;;5060184;28;20045;-86
2022/06/10 10:40:56;;;;;;;9.32;3.42;;;;;;;;;;5066896;28;20048;-86
2022/06/10 10:43:26;;;;;;;8.95;3.58;;;;;;;;;;5038308;28;20504;-86
2022/06/10 10:45:57;;;;;;;11.02;4.05;;;;;;;;;;5049679;28;20037;-85
2022/06/10 10:48:26;;;;;;;19.45;5.75;;;;;;;;;;5032020;28;20060;-88
2022/06/10 10:51:00;;;;;;;11.25;3.95;;;;;;;;;;5050046;28;20084;-86
2022/06/10 10:53:29;;;;;;;11.90;3.83;;;;;;;;;;5055050;28;20047;-87
2022/06/10 10:55:57;;;;;;;10.95;3.85;;;;;;;;;;5046287;28;20045;-86
2022/06/10 10:58:38;;;;;;;10.13;4.28;;;;;;;;;;5053517;28;20047;-87
2022/06/10 11:01:06;;;;;;;16.33;5.80;;;;;;;;;;5062327;28;20051;-83
2022/06/10 11:03:32;;;;;;;15.48;5.28;;;;;;;;;;5060040;28;20052;-86
2022/06/10 11:06:00;;;;;;;11.27;4.50;;;;;;;;;;5067828;28;20125;-85
2022/06/10 11:08:28;;;;;;;10.98;4.45;;;;;;;;;;5057106;28;20085;-69
2022/06/10 11:11:12;;;;;;;11.60;4.55;;;;;;;;;;5056015;28;20553;-69
2022/06/10 11:13:46;;;;;;;21.98;7.15;;;;;;;;;;5063204;28;20489;-69
2022/06/10 11:16:17;;;;;;;10.60;4.40;;;;;;;;;;5060844;28;20049;-69
2022/06/10 11:18:46;;;;;;;17.02;5.78;;;;;;;;;;5062013;28;20040;-69
2022/06/10 11:21:12;;;;;;;9.30;4.70;;;;;;;;;;5053612;28;20053;-69
2022/06/10 11:23:49;;;;;;;12.07;5.30;;;;;;;;;;5067239;28;20064;-68
2022/06/10 11:26:20;;;;;;;13.57;4.65;;;;;;;;;;5055820;28;20049;-69
2022/06/10 11:28:47;;;;;;;12.63;5.47;;;;;;;;;;5057746;28;20052;-69
2022/06/10 11:31:23;;;;;;;18.25;6.53;;;;;;;;;;5063873;28;20137;-68
2022/06/10 11:33:52;;;;;;;16.27;4.47;;;;;;;;;;5063221;28;20044;-70
2022/06/10 11:36:18;;;;;;;;;;;;;;;;;;5056612;28;20045;-70
2022/06/10 11:38:48;;;;;;;9.60;3.15;;;;;;;;;;5065210;28;19924;-70
2022/06/10 11:41:26;;;;;;;8.32;3.20;;;;;;;;;;5062756;28;20044;-70
2022/06/10 11:43:56;;;;;;;7.90;3.73;;;;;;;;;;5059400;28;20088;-68
2022/06/10 11:46:38;;;;;;;11.93;3.42;;;;;;;;;;5059991;28;20046;-68
2022/06/10 11:49:04;;;;;;;10.38;3.00;;;;;;;;;;5059739;28;20067;-69
2022/06/10 11:51:36;;;;;;;9.50;3.33;;;;;;;;;;5059447;28;20417;-71
2022/06/10 11:54:18;;;;;;;7.20;2.95;;;;;;;;;;5032308;28;20037;-69
2022/06/10 11:59:44;;;;;;;9.52;3.15;;;;;;;;;;5057378;28;20053;-69
2022/06/10 12:02:12;;;;;;;10.05;3.13;;;;;;;;;;5053465;28;20072;-69
2022/06/10 12:04:41;;;;;;;10.90;3.10;;;;;;;;;;5054328;28;20037;-69
2022/06/10 12:07:10;;;;;;;9.80;3.00;;;;;;;;;;5052563;28;20175;-69
2022/06/10 12:09:43;;;;;;;11.57;2.83;;;;;;;;;;5058040;28;20043;-69
2022/06/10 12:12:17;;;;;;;6.93;2.50;;;;;;;;;;5046707;28;20045;-69
2022/06/10 12:14:46;;;;;;;32.60;8.70;;;;;;;;;;5063592;28;20040;-69
2022/06/10 12:17:12;;;;;;;;;;;;;;;;;;5064419;28;20064;-69
2022/06/10 12:19:43;;;;;;;9.90;3.80;;;;;;;;;;5062719;28;20399;-70
2022/06/10 12:22:10;;;;;;;8.60;3.40;;;;;;;;;;5059962;28;20064;-69
2022/06/10 12:24:36;;;;;;;12.55;2.80;;;;;;;;;;5072678;28;20060;-68
2022/06/10 12:27:06;;;;;;;29.77;3.80;;;;;;;;;;5036499;28;20479;-69
2022/06/10 12:29:50;;;;;;;13.43;3.85;;;;;;;;;;5049340;28;20096;-68
2022/06/10 12:32:21;;;;;;;8.70;3.55;;;;;;;;;;5049559;28;20045;-69
2022/06/10 12:34:54;;;;;;;15.18;3.38;;;;;;;;;;5049208;28;20055;-70
2022/06/10 12:37:46;;;;;;;12.05;3.38;;;;;;;;;;5048803;28;20049;-69
2022/06/10 12:40:12;;;;;;;15.55;4.40;;;;;;;;;;5054064;28;20052;-69
2022/06/10 12:42:41;;;;;;;21.00;6.50;;;;;;;;;;5067274;28;20047;-70
2022/06/10 12:45:34;;;;;;;9.00;2.75;;;;;;;;;;5068667;28;20044;-70
2022/06/10 12:48:01;;;;;;;6.47;2.80;;;;;;;;;;5066398;28;20060;-70
2022/06/10 12:50:32;;;;;;;41.53;11.53;;;;;;;;;;5066741;28;20052;-70
2022/06/10 12:53:08;;;;;;;9.48;3.60;;;;;;;;;;5067030;28;20666;-70
2022/06/10 12:55:37;;;;;;;7.03;2.75;;;;;;;;;;5066911;28;20136;-70
2022/06/10 12:58:03;;;;;;;12.80;3.90;;;;;;;;;;5067271;28;20049;-70
2022/06/10 13:00:36;;;;;;;14.18;4.28;;;;;;;;;;5050285;28;20138;-70
2022/06/10 13:03:10;;;;;;;16.10;4.53;;;;;;;;;;5068405;28;20079;-69
2022/06/10 13:05:37;;;;;;;8.90;2.78;;;;;;;;;;5066549;28;20072;-70
2022/06/10 13:08:03;;;;;;;14.13;4.15;;;;;;;;;;5066503;28;20036;-71
2022/06/10 13:10:29;;;;;;;10.60;3.53;;;;;;;;;;5067684;28;20044;-71
2022/06/10 13:12:59;;;;;;;15.20;4.55;;;;;;;;;;5070983;28;20076;-71
2022/06/10 13:15:29;;;;;;;11.18;3.22;;;;;;;;;;5070599;28;20045;-71
2022/06/10 13:17:56;;;;;;;10.35;3.30;;;;;;;;;;5070482;28;20075;-69
2022/06/10 13:20:22;;;;;;;10.82;3.35;;;;;;;;;;5070410;28;20136;-70
2022/06/10 13:23:09;;;;;;;15.70;4.78;;;;;;;;;;5069454;28;20102;-70
2022/06/10 13:25:35;;;;;;;9.32;2.55;;;;;;;;;;5071247;28;20080;-70
2022/06/10 13:28:01;;;;;;;32.67;10.05;;;;;;;;;;5071491;28;20515;-70
2022/06/10 13:30:29;;;;;;;15.25;4.68;;;;;;;;;;5053200;28;20056;-70
2022/06/10 13:33:01;;;;;;;11.32;3.88;;;;;;;;;;5071729;28;20121;-70
2022/06/10 13:35:31;;;;;;;14.38;4.22;;;;;;;;;;5071354;28;20439;-70
2022/06/10 13:37:59;;;;;;;13.73;3.08;;;;;;;;;;5072074;28;20388;-70
2022/06/10 13:40:26;;;;;;;11.02;2.75;;;;;;;;;;5070390;28;20049;-69
2022/06/10 13:42:54;;;;;;;8.60;2.42;;;;;;;;;;5070302;28;20095;-70
2022/06/10 13:45:22;;;;;;;10.57;2.73;;;;;;;;;;5071366;28;20044;-69
2022/06/10 13:47:53;;;;;;;7.13;3.03;;;;;;;;;;5069844;28;20055;-69
2022/06/10 13:53:19;;;;;;;8.35;2.92;;;;;;;;;;5065900;28;20044;-69
2022/06/10 13:55:51;;;;;;;10.27;3.45;;;;;;;;;;5070904;28;20049;-69
2022/06/10 13:58:22;;;;;;;6.55;2.60;;;;;;;;;;5069751;28;20048;-71
2022/06/10 14:01:08;;;;;;;10.40;4.03;;;;;;;;;;5070786;28;20048;-69
2022/06/10 14:03:37;;;;;;;13.70;4.78;;;;;;;;;;5069181;28;20047;-69
2022/06/10 14:06:13;;;;;;;6.90;2.78;;;;;;;;;;5069204;28;20469;-70
2022/06/10 14:08:45;;;;;;;9.75;3.08;;;;;;;;;;5096031;28;20127;-70
2022/06/10 14:11:30;;;;;;;10.88;3.83;;;;;;;;;;5050249;28;20037;-69
2022/06/10 14:13:58;;;;;;;9.02;3.15;;;;;;;;;;5050657;28;20055;-70
2022/06/10 14:16:25;;;;;;;9.85;3.03;;;;;;;;;;5051699;28;20044;-70
2022/06/10 14:18:53;;;;;;;8.52;2.63;;;;;;;;;;5051351;28;20116;-70
2022/06/10 14:21:19;;;;;;;7.13;2.90;;;;;;;;;;5050261;28;20056;-69
2022/06/10 14:24:02;;;;;;;5.68;3.08;;;;;;;;;;5050710;28;20053;-70
2022/06/10 14:26:28;;;;;;;10.32;3.72;;;;;;;;;;5050954;28;20570;-69
2022/06/10 14:29:07;;;;;;;8.43;3.15;;;;;;;;;;5051622;28;20044;-70
2022/06/10 14:31:34;;;;;;;17.55;5.10;;;;;;;;;;5064189;28;20441;-69
2022/06/10 14:34:01;;;;;;;9.20;3.40;;;;;;;;;;5051903;28;20040;-69
2022/06/10 14:36:28;;;;;;;12.75;3.53;;;;;;;;;;5070245;28;20041;-69
2022/06/10 14:39:07;;;;;;;7.32;3.30;;;;;;;;;;5069392;28;20045;-69
2022/06/10 14:41:34;;;;;;;7.20;2.90;;;;;;;;;;5068813;28;20051;-69
2022/06/10 14:44:02;;;;;;;11.38;3.63;;;;;;;;;;5070592;28;20044;-69
2022/06/10 14:46:29;;;;;;;7.63;3.35;;;;;;;;;;5051822;28;20301;-69
2022/06/10 14:48:55;;;;;;;30.15;8.95;;;;;;;;;;5069627;28;20041;-69
2022/06/10 14:51:22;;;;;;;9.27;3.63;;;;;;;;;;5068646;28;20040;-70
2022/06/10 14:53:58;;;;;;;5.88;3.38;;;;;;;;;;5068469;28;20123;-69
2022/06/10 14:56:31;;;;;;;6.85;3.35;;;;;;;;;;5054570;28;20094;-69
2022/06/10 14:58:57;;;;;;;8.73;3.15;;;;;;;;;;5049975;28;20056;-69
2022/06/10 15:01:28;;;;;;;7.90;2.85;;;;;;;;;;5050944;28;20098;-69
2022/06/10 15:03:54;;;;;;;10.63;3.92;;;;;;;;;;5048761;28;20099;-70
2022/06/10 15:06:37;;;;;;;7.28;3.17;;;;;;;;;;5049004;28;20049;-69
2022/06/10 15:09:08;;;;;;;8.95;3.30;;;;;;;;;;5050291;28;20041;-69
2022/06/10 15:11:35;;;;;;;9.88;3.65;;;;;;;;;;5050119;28;20076;-69